首页
METAR-TAF:

METAR-TAF

机场 :

安徒生, 南卡罗来纳州, 美国

纬度: 34-29-52N, 经度: 082-42-35W, 海拔: 238米

当前天气观测

该预报发布于44分钟前的17:56 UTC
风速11节,风向东转东北,有时为18节阵风
温度 7°C
湿度 33%
气压 1032 hPa
能見度: 16.1公里
天空无云

METAR: KAND 211756Z AUTO 07011G18KT 10SM CLR 07/M08 A3048 RMK AO2 SLP322 T00721083 10072 21006 58001

时间: 13:40 (18:40 UTC)

预报

该预报发布于1小时和20分钟前的17:20 UTC
预报有效从21日的 18点(UTC)到 22日的 18点(UTC)
风速8节,风向东北
能見度: 10公里
天空无云
从 21日的 2300点(UTC)
风速4节,风向
能見度: 10公里
天空无云
从 22日的 0300点(UTC)
风速2节,风向多变
能見度: 10公里
天空无云
从 22日的 1700点(UTC)
风速4节,风向西南
能見度: 10公里
天空无云

TAF: KAND 211720Z 2118/2218 04008KT P6SM SKC FM212300 08004KT P6SM SKC FM220300 VRB02KT P6SM SKC FM221700 23004KT P6SM SKC

超过4000个机场的气象观测和天气预报(METAR&TAF报告)。

可查询的气象台以黄色和红色小点在地图上表示。

将鼠标移到小点上方,可查看气象台名称。

然后点击查看天气观测和预报。

如需切换地图:点击带黑十字的绿色按钮放大地图;点击带横线的绿色按钮缩小地图;或者点击绿色箭头查看邻近地区的地图。


METAR-TAF: